createdAt,value
2023-04-08T00:00:17.112Z,85.4
2023-04-08T00:01:16.665Z,85.5
2023-04-08T00:02:16.698Z,85.7
2023-04-08T00:03:17.647Z,85.6
2023-04-08T00:04:17.472Z,85.6
2023-04-08T00:05:17.083Z,85.6
2023-04-08T00:06:16.644Z,85.6
2023-04-08T00:07:17.207Z,85.5
2023-04-08T00:08:16.756Z,85.6
2023-04-08T00:09:17.292Z,85.8
2023-04-08T00:10:16.848Z,85.9
2023-04-08T00:11:17.393Z,85.8
2023-04-08T00:12:17.338Z,86.1
2023-04-08T00:13:16.952Z,86.0
2023-04-08T00:14:17.514Z,86.0
2023-04-08T00:15:17.049Z,86.3
2023-04-08T00:16:16.671Z,86.2
2023-04-08T00:17:17.285Z,86.2
2023-04-08T00:18:16.839Z,86.5
2023-04-08T00:19:17.420Z,86.3
2023-04-08T00:20:16.955Z,86.2
2023-04-08T00:21:17.481Z,86.1
2023-04-08T00:22:17.284Z,86.0
2023-04-08T00:23:16.844Z,86.0
2023-04-08T00:24:17.438Z,86.0
2023-04-08T00:25:16.987Z,86.5
2023-04-08T00:26:16.553Z,86.4
2023-04-08T00:27:17.093Z,86.2
2023-04-08T00:28:16.657Z,86.2
2023-04-08T00:29:17.232Z,86.6
2023-04-08T00:30:16.789Z,86.8
2023-04-08T00:31:17.484Z,86.9
2023-04-08T00:32:17.215Z,87.1
2023-04-08T00:33:16.790Z,87.3
2023-04-08T00:34:17.345Z,87.1
2023-04-08T00:35:16.977Z,86.8
2023-04-08T00:36:16.589Z,87.3
2023-04-08T00:37:17.131Z,87.3
2023-04-08T00:38:16.666Z,87.3
2023-04-08T00:39:17.242Z,87.1
2023-04-08T00:40:16.814Z,87.2
2023-04-08T00:41:17.361Z,87.4
2023-04-08T00:42:17.349Z,87.3
2023-04-08T00:43:16.998Z,87.3
2023-04-08T00:44:16.613Z,87.4
2023-04-08T00:45:17.200Z,87.6
2023-04-08T00:46:16.781Z,87.3
2023-04-08T00:47:17.361Z,87.3
2023-04-08T00:48:16.914Z,87.4
2023-04-08T00:49:17.461Z,87.3
2023-04-08T00:50:17.027Z,87.3
2023-04-08T00:51:16.627Z,87.4
2023-04-08T00:52:17.235Z,87.9
2023-04-08T00:53:16.797Z,88.0
2023-04-08T00:54:17.360Z,88.0
2023-04-08T00:55:16.936Z,87.9
2023-04-08T00:56:17.494Z,87.9
2023-04-08T00:57:17.054Z,87.9
2023-04-08T00:58:16.660Z,88.1
2023-04-08T00:59:17.320Z,88.1
2023-04-08T01:00:16.894Z,88.1
2023-04-08T01:01:17.585Z,88.0
2023-04-08T01:02:17.155Z,88.0
2023-04-08T01:03:17.174Z,87.9
2023-04-08T01:04:17.073Z,88.0
2023-04-08T01:05:16.684Z,88.0
2023-04-08T01:06:17.236Z,87.8
2023-04-08T01:07:16.793Z,87.7
2023-04-08T01:08:17.362Z,87.9
2023-04-08T01:09:16.916Z,88.0
2023-04-08T01:10:17.487Z,87.9
2023-04-08T01:11:17.055Z,87.8
2023-04-08T01:12:17.221Z,87.7
2023-04-08T01:13:16.801Z,87.9
2023-04-08T01:14:17.348Z,88.1
2023-04-08T01:15:16.927Z,88.3
2023-04-08T01:16:17.520Z,88.1
2023-04-08T01:17:17.114Z,88.1
2023-04-08T01:18:16.704Z,88.2
2023-04-08T01:19:17.258Z,88.5
2023-04-08T01:20:16.829Z,88.5
2023-04-08T01:21:17.368Z,88.5
2023-04-08T01:22:17.477Z,88.4
2023-04-08T01:23:17.040Z,88.2
2023-04-08T01:24:16.631Z,88.2
2023-04-08T01:25:17.204Z,88.0
2023-04-08T01:26:16.772Z,88.1
2023-04-08T01:27:17.357Z,88.3
2023-04-08T01:28:16.946Z,88.2
2023-04-08T01:29:17.500Z,88.1
2023-04-08T01:30:17.047Z,88.0
2023-04-08T01:31:16.589Z,88.0
2023-04-08T01:32:16.602Z,88.2
2023-04-08T01:33:17.155Z,88.2
2023-04-08T01:34:16.700Z,88.2
2023-04-08T01:35:17.298Z,88.1
2023-04-08T01:36:16.900Z,88.0
2023-04-08T01:37:17.482Z,88.0
2023-04-08T01:38:17.041Z,87.9
2023-04-08T01:39:16.642Z,87.8
2023-04-08T01:40:17.249Z,87.8
2023-04-08T01:41:16.835Z,87.8
2023-04-08T01:42:17.488Z,88.0
2023-04-08T01:43:17.058Z,88.0
2023-04-08T01:44:16.634Z,88.1
2023-04-08T01:45:17.262Z,87.9
2023-04-08T01:46:16.951Z,87.9
2023-04-08T01:47:16.539Z,88.1
2023-04-08T01:48:17.104Z,88.0
2023-04-08T01:49:16.650Z,87.8
2023-04-08T01:50:17.208Z,87.9
2023-04-08T01:51:16.808Z,88.0
2023-04-08T01:52:16.634Z,87.9
2023-04-08T01:53:17.185Z,87.8
2023-04-08T01:54:16.747Z,87.8
2023-04-08T01:55:17.320Z,87.8
2023-04-08T01:56:16.898Z,87.8
2023-04-08T01:57:17.419Z,87.9
2023-04-08T01:58:16.974Z,87.7
2023-04-08T01:59:16.535Z,87.7
2023-04-08T02:00:17.114Z,87.5
2023-04-08T02:01:16.653Z,87.5
2023-04-08T02:02:17.196Z,87.8
2023-04-08T02:03:17.336Z,88.0
2023-04-08T02:04:17.418Z,88.0
2023-04-08T02:05:17.047Z,87.9
2023-04-08T02:06:16.610Z,87.8
2023-04-08T02:07:17.172Z,88.0
2023-04-08T02:08:16.782Z,88.2
2023-04-08T02:09:17.356Z,88.0
2023-04-08T02:10:16.922Z,88.0
2023-04-08T02:11:17.476Z,88.0
2023-04-08T02:12:17.216Z,87.9
2023-04-08T02:13:16.766Z,87.9
2023-04-08T02:14:17.311Z,87.9
2023-04-08T02:15:16.887Z,87.9
2023-04-08T02:16:17.552Z,87.9
2023-04-08T02:17:17.222Z,87.8
2023-04-08T02:18:16.835Z,87.7
2023-04-08T02:19:17.402Z,87.8
2023-04-08T02:20:17.022Z,87.7
2023-04-08T02:21:16.655Z,87.6
2023-04-08T02:22:16.579Z,87.6
2023-04-08T02:23:17.181Z,87.3
2023-04-08T02:24:16.727Z,87.3
2023-04-08T02:25:17.284Z,87.3
2023-04-08T02:26:16.887Z,87.4
2023-04-08T02:27:17.428Z,87.4
2023-04-08T02:28:17.059Z,87.4
2023-04-08T02:29:16.612Z,87.2
2023-04-08T02:30:17.183Z,86.9
2023-04-08T02:31:16.736Z,86.9
2023-04-08T02:32:16.542Z,87.1
2023-04-08T02:33:17.087Z,86.9
2023-04-08T02:34:16.653Z,86.9
2023-04-08T02:35:17.597Z,86.8
2023-04-08T02:36:17.213Z,86.4
2023-04-08T02:37:16.761Z,86.4
2023-04-08T02:38:17.321Z,86.6
2023-04-08T02:39:16.907Z,86.6
2023-04-08T02:40:17.500Z,86.7
2023-04-08T02:41:17.079Z,86.7
2023-04-08T02:42:16.704Z,86.4
2023-04-08T02:43:17.250Z,86.1
2023-04-08T02:44:16.806Z,86.1
2023-04-08T02:45:17.369Z,86.1
2023-04-08T02:46:17.029Z,86.2
2023-04-08T02:47:16.627Z,86.2
2023-04-08T02:48:17.196Z,86.3
2023-04-08T02:49:16.779Z,86.3
2023-04-08T02:50:17.329Z,86.2
2023-04-08T02:51:16.922Z,86.2
2023-04-08T02:52:16.771Z,86.1
2023-04-08T02:53:17.344Z,85.8
2023-04-08T02:54:16.884Z,85.4
2023-04-08T02:55:17.461Z,85.1
2023-04-08T02:56:17.062Z,84.9
2023-04-08T02:57:16.616Z,84.8
2023-04-08T02:58:17.176Z,84.3
2023-04-08T02:59:16.749Z,84.5
2023-04-08T03:00:17.320Z,84.6
2023-04-08T03:01:16.980Z,84.4
2023-04-08T03:02:16.742Z,84.5
2023-04-08T03:03:17.610Z,84.7
2023-04-08T03:04:17.237Z,84.6
2023-04-08T03:05:16.800Z,84.7
2023-04-08T03:06:17.344Z,84.2
2023-04-08T03:07:16.916Z,84.2
2023-04-08T03:08:17.464Z,84.1
2023-04-08T03:09:17.024Z,84.2
2023-04-08T03:10:16.631Z,84.0
2023-04-08T03:11:17.161Z,84.0
2023-04-08T03:12:16.784Z,84.0
2023-04-08T03:13:17.352Z,84.0
2023-04-08T03:14:17.005Z,83.9
2023-04-08T03:15:16.629Z,83.9
2023-04-08T03:16:17.206Z,83.5
2023-04-08T03:17:16.755Z,83.3
2023-04-08T03:18:17.298Z,82.7
2023-04-08T03:19:16.894Z,82.6
2023-04-08T03:20:17.451Z,82.5
2023-04-08T03:21:16.988Z,82.7
2023-04-08T03:22:17.000Z,82.8
2023-04-08T03:23:16.546Z,83.0
2023-04-08T03:24:17.121Z,82.9
2023-04-08T03:25:16.679Z,82.5
2023-04-08T03:26:17.255Z,82.2
2023-04-08T03:27:16.808Z,82.3
2023-04-08T03:28:17.696Z,82.4
2023-04-08T03:29:17.519Z,82.4
2023-04-08T03:30:17.310Z,82.2
2023-04-08T03:31:17.130Z,82.3
2023-04-08T03:32:16.696Z,82.3
2023-04-08T03:33:17.261Z,82.1
2023-04-08T03:34:16.791Z,82.3
2023-04-08T03:35:17.409Z,82.3
2023-04-08T03:36:16.960Z,82.3
2023-04-08T03:37:17.497Z,82.1
2023-04-08T03:38:17.042Z,82.1
2023-04-08T03:39:16.607Z,82.2
2023-04-08T03:40:17.161Z,82.1
2023-04-08T03:41:16.711Z,81.9
2023-04-08T03:42:16.793Z,81.6
2023-04-08T03:43:17.349Z,81.7
2023-04-08T03:44:16.910Z,81.8
2023-04-08T03:45:17.504Z,81.9
2023-04-08T03:46:17.182Z,81.8
2023-04-08T03:47:16.782Z,81.8
2023-04-08T03:48:17.310Z,81.7
2023-04-08T03:49:16.911Z,81.3
2023-04-08T03:50:17.436Z,81.5
2023-04-08T03:51:16.979Z,81.5
2023-04-08T03:52:17.011Z,81.6
2023-04-08T03:53:16.559Z,81.7
2023-04-08T03:54:17.103Z,81.7
2023-04-08T03:55:16.646Z,81.8
2023-04-08T03:56:17.217Z,81.9
2023-04-08T03:57:16.798Z,82.0
2023-04-08T03:58:17.337Z,81.9
2023-04-08T03:59:16.900Z,81.8
2023-04-08T04:00:17.495Z,81.9
2023-04-08T04:01:17.039Z,82.0
2023-04-08T04:02:17.036Z,81.9
2023-04-08T04:03:16.849Z,81.8
2023-04-08T04:04:17.746Z,81.7
2023-04-08T04:05:17.399Z,81.7
2023-04-08T04:06:16.928Z,81.6
2023-04-08T04:07:17.457Z,81.6
2023-04-08T04:08:17.009Z,81.1
2023-04-08T04:09:16.558Z,81.2
2023-04-08T04:10:17.107Z,81.3
2023-04-08T04:11:16.686Z,81.2
2023-04-08T04:12:17.484Z,81.0
2023-04-08T04:13:17.041Z,81.0
2023-04-08T04:14:16.577Z,81.0
2023-04-08T04:15:17.160Z,81.2
2023-04-08T04:16:16.962Z,80.9
2023-04-08T04:17:16.524Z,80.8
2023-04-08T04:18:17.179Z,80.6
2023-04-08T04:19:16.756Z,80.3
2023-04-08T04:20:17.272Z,80.2
2023-04-08T04:21:16.829Z,80.0
2023-04-08T04:22:17.213Z,80.2
2023-04-08T04:23:16.764Z,80.2
2023-04-08T04:24:17.337Z,80.1
2023-04-08T04:25:16.920Z,80.1
2023-04-08T04:26:17.500Z,80.6
2023-04-08T04:27:17.096Z,80.4
2023-04-08T04:28:16.649Z,80.3
2023-04-08T04:29:17.197Z,80.3
2023-04-08T04:30:16.739Z,80.0
2023-04-08T04:31:17.428Z,80.0
2023-04-08T04:32:17.174Z,80.0
2023-04-08T04:33:16.735Z,80.2
2023-04-08T04:34:17.296Z,80.2
2023-04-08T04:35:16.897Z,80.1
2023-04-08T04:36:17.524Z,80.1
2023-04-08T04:37:17.072Z,80.0
2023-04-08T04:38:16.637Z,79.9
2023-04-08T04:39:17.192Z,79.9
2023-04-08T04:40:16.793Z,79.8
2023-04-08T04:41:17.354Z,79.8
2023-04-08T04:42:17.396Z,79.7
2023-04-08T04:43:17.010Z,79.6
2023-04-08T04:44:16.583Z,79.7
2023-04-08T04:45:17.342Z,79.7
2023-04-08T04:46:17.006Z,79.7
2023-04-08T04:47:16.664Z,79.6
2023-04-08T04:48:17.267Z,79.7
2023-04-08T04:49:16.864Z,79.6
2023-04-08T04:50:17.432Z,79.6
2023-04-08T04:51:17.012Z,79.6
2023-04-08T04:52:16.913Z,79.5
2023-04-08T04:53:17.436Z,79.4
2023-04-08T04:54:16.996Z,79.5
2023-04-08T04:55:16.573Z,79.2
2023-04-08T04:56:17.167Z,79.4
2023-04-08T04:57:16.734Z,79.2
2023-04-08T04:58:17.259Z,79.5
2023-04-08T04:59:16.796Z,79.4
2023-04-08T05:00:17.339Z,79.0
2023-04-08T05:01:16.961Z,78.9
2023-04-08T05:02:16.998Z,78.9
2023-04-08T05:03:17.123Z,78.6
2023-04-08T05:04:16.801Z,78.6
2023-04-08T05:05:17.483Z,78.5
2023-04-08T05:06:17.073Z,78.6
2023-04-08T05:07:16.609Z,78.6
2023-04-08T05:08:17.172Z,78.6
2023-04-08T05:09:16.736Z,78.6
2023-04-08T05:10:17.282Z,78.7
2023-04-08T05:11:16.857Z,78.7
2023-04-08T05:12:16.895Z,78.5
2023-04-08T05:13:17.512Z,78.6
2023-04-08T05:14:17.062Z,78.7
2023-04-08T05:15:16.603Z,78.7
2023-04-08T05:16:17.246Z,78.9
2023-04-08T05:17:16.854Z,78.9
2023-04-08T05:18:17.411Z,78.7
2023-04-08T05:19:16.965Z,78.3
2023-04-08T05:20:18.068Z,78.6
2023-04-08T05:21:16.614Z,78.7
2023-04-08T05:22:17.320Z,78.7
2023-04-08T05:23:16.858Z,79.0
2023-04-08T05:24:17.423Z,79.0
2023-04-08T05:25:16.984Z,78.9
2023-04-08T05:26:17.593Z,78.8
2023-04-08T05:27:16.801Z,78.8
2023-04-08T05:28:17.367Z,78.8
2023-04-08T05:29:16.913Z,78.7
2023-04-08T05:30:17.486Z,79.0
2023-04-08T05:31:17.096Z,78.9
2023-04-08T05:32:17.458Z,79.2
2023-04-08T05:33:17.015Z,79.3
2023-04-08T05:34:16.717Z,79.5
2023-04-08T05:35:17.414Z,79.5
2023-04-08T05:36:16.990Z,79.5
2023-04-08T05:37:16.549Z,79.8
2023-04-08T05:38:17.081Z,80.2
2023-04-08T05:39:16.650Z,80.5
2023-04-08T05:40:17.256Z,80.8
2023-04-08T05:41:16.803Z,80.9
2023-04-08T05:42:17.380Z,80.8
2023-04-08T05:43:16.919Z,81.0
2023-04-08T05:44:17.456Z,81.2
2023-04-08T05:45:17.050Z,81.5
2023-04-08T05:46:16.711Z,81.5
2023-04-08T05:47:17.273Z,81.5
2023-04-08T05:48:16.845Z,81.9
2023-04-08T05:49:17.399Z,82.0
2023-04-08T05:50:16.988Z,82.1
2023-04-08T05:51:16.553Z,82.4
2023-04-08T05:52:16.571Z,82.9
2023-04-08T05:53:17.136Z,82.5
2023-04-08T05:54:16.736Z,82.5
2023-04-08T05:55:17.293Z,82.8
2023-04-08T05:56:16.850Z,82.8
2023-04-08T05:57:17.399Z,83.0
2023-04-08T05:58:16.946Z,83.3
2023-04-08T05:59:17.517Z,83.4
2023-04-08T06:00:17.204Z,83.8
2023-04-08T06:01:16.748Z,83.9
2023-04-08T06:02:17.591Z,84.0
2023-04-08T06:03:20.947Z,84.1
2023-04-08T06:04:16.844Z,84.3
2023-04-08T06:05:17.436Z,84.9
2023-04-08T06:06:16.989Z,85.2
2023-04-08T06:07:16.529Z,85.1
2023-04-08T06:08:17.105Z,85.1
2023-04-08T06:09:16.691Z,85.5
2023-04-08T06:10:17.269Z,85.4
2023-04-08T06:11:16.820Z,85.4
2023-04-08T06:12:16.542Z,85.8
2023-04-08T06:13:17.114Z,85.8
2023-04-08T06:14:16.665Z,85.8
2023-04-08T06:15:17.238Z,86.1
2023-04-08T06:16:21.068Z,86.0
2023-04-08T06:17:16.899Z,86.2
2023-04-08T06:18:17.441Z,86.6
2023-04-08T06:19:17.243Z,87.4
2023-04-08T06:20:16.828Z,87.4
2023-04-08T06:21:17.382Z,87.4
2023-04-08T06:22:16.933Z,87.4
2023-04-08T06:23:17.464Z,87.3
2023-04-08T06:24:17.035Z,87.3
2023-04-08T06:25:16.592Z,87.5
2023-04-08T06:26:17.167Z,87.6
2023-04-08T06:27:16.760Z,87.7
2023-04-08T06:28:17.330Z,87.6
2023-04-08T06:29:17.029Z,87.6
2023-04-08T06:30:16.600Z,87.6
2023-04-08T06:31:17.219Z,87.6
2023-04-08T06:32:16.858Z,87.6
2023-04-08T06:33:17.405Z,88.0
2023-04-08T06:34:16.944Z,88.4
2023-04-08T06:35:17.667Z,88.2
2023-04-08T06:36:17.335Z,88.2
2023-04-08T06:37:16.880Z,88.1
2023-04-08T06:38:17.454Z,88.2
2023-04-08T06:39:17.040Z,88.3
2023-04-08T06:40:16.652Z,88.4
2023-04-08T06:41:17.230Z,88.7
2023-04-08T06:42:17.298Z,88.7
2023-04-08T06:43:16.840Z,88.7
2023-04-08T06:44:17.384Z,88.7
2023-04-08T06:45:16.965Z,88.7
2023-04-08T06:46:16.657Z,88.8
2023-04-08T06:47:17.232Z,88.9
2023-04-08T06:48:16.782Z,88.9
2023-04-08T06:49:17.323Z,89.0
2023-04-08T06:50:16.939Z,89.0
2023-04-08T06:51:17.535Z,89.0
2023-04-08T06:52:17.457Z,89.2
2023-04-08T06:53:17.033Z,89.6
2023-04-08T06:54:16.616Z,89.9
2023-04-08T06:55:17.164Z,89.8
2023-04-08T06:56:16.961Z,89.9
2023-04-08T06:57:16.597Z,90.0
2023-04-08T06:58:17.160Z,90.2
2023-04-08T06:59:16.717Z,90.0
2023-04-08T07:00:17.292Z,89.9
2023-04-08T07:01:16.987Z,90.1
2023-04-08T07:02:17.055Z,90.3
2023-04-08T07:03:16.772Z,90.2
2023-04-08T07:04:17.688Z,90.2
2023-04-08T07:05:17.267Z,90.0
2023-04-08T07:06:16.823Z,90.0
2023-04-08T07:07:17.401Z,90.0
2023-04-08T07:08:16.967Z,90.0
2023-04-08T07:09:16.710Z,90.4
2023-04-08T07:10:17.550Z,90.5
2023-04-08T07:11:17.190Z,90.7
2023-04-08T07:12:16.668Z,90.5
2023-04-08T07:13:17.245Z,90.3
2023-04-08T07:14:16.823Z,90.3
2023-04-08T07:15:17.390Z,89.9
2023-04-08T07:16:16.994Z,89.7
2023-04-08T07:17:16.579Z,89.7
2023-04-08T07:18:17.152Z,89.7
2023-04-08T07:19:16.694Z,89.6
2023-04-08T07:20:17.210Z,89.6
2023-04-08T07:21:16.776Z,89.9
2023-04-08T07:22:16.649Z,90.3
2023-04-08T07:23:17.198Z,90.3
2023-04-08T07:24:16.742Z,90.3
2023-04-08T07:25:17.308Z,90.2
2023-04-08T07:26:16.893Z,90.4
2023-04-08T07:27:17.447Z,90.4
2023-04-08T07:28:17.022Z,90.2
2023-04-08T07:29:16.587Z,90.2
2023-04-08T07:30:17.144Z,90.4
2023-04-08T07:31:16.890Z,90.2
2023-04-08T07:32:17.304Z,90.1
2023-04-08T07:33:16.864Z,90.1
2023-04-08T07:34:17.413Z,90.2
2023-04-08T07:35:16.949Z,90.3
2023-04-08T07:36:17.504Z,90.5
2023-04-08T07:37:17.071Z,90.5
2023-04-08T07:38:16.621Z,90.6
2023-04-08T07:39:17.204Z,90.7
2023-04-08T07:40:16.788Z,90.7
2023-04-08T07:41:17.320Z,90.5
2023-04-08T07:42:17.190Z,90.5
2023-04-08T07:43:16.764Z,90.5
2023-04-08T07:44:17.516Z,90.5
2023-04-08T07:45:17.060Z,90.6
2023-04-08T07:46:16.670Z,90.6
2023-04-08T07:47:17.261Z,90.7
2023-04-08T07:48:16.821Z,90.7
2023-04-08T07:49:17.386Z,90.6
2023-04-08T07:50:17.011Z,90.7
2023-04-08T07:51:20.729Z,90.6
2023-04-08T07:52:16.962Z,90.6
2023-04-08T07:53:17.524Z,90.6
2023-04-08T07:54:17.079Z,90.5
2023-04-08T07:55:16.994Z,90.7
2023-04-08T07:56:16.974Z,90.5
2023-04-08T07:57:16.741Z,90.6
2023-04-08T07:58:17.607Z,90.7
2023-04-08T07:59:17.236Z,90.8
2023-04-08T08:00:16.766Z,90.9
2023-04-08T08:01:17.312Z,90.9
2023-04-08T08:02:17.361Z,90.6
2023-04-08T08:03:17.053Z,90.6
2023-04-08T08:04:16.991Z,90.7
2023-04-08T08:05:16.955Z,90.6
2023-04-08T08:06:16.672Z,90.7
2023-04-08T08:07:17.241Z,90.7
2023-04-08T08:08:16.791Z,90.9
2023-04-08T08:09:17.383Z,91.0
2023-04-08T08:10:16.919Z,90.9
2023-04-08T08:11:17.549Z,90.9
2023-04-08T08:12:17.357Z,90.8
2023-04-08T08:13:16.935Z,90.8
2023-04-08T08:14:16.562Z,91.0
2023-04-08T08:15:17.110Z,91.2
2023-04-08T08:16:16.704Z,91.2
2023-04-08T08:17:17.269Z,91.1
2023-04-08T08:18:16.835Z,91.0
2023-04-08T08:19:17.390Z,90.9
2023-04-08T08:20:16.942Z,90.8
2023-04-08T08:21:17.496Z,90.8
2023-04-08T08:22:17.422Z,90.9
2023-04-08T08:23:16.991Z,90.9
2023-04-08T08:24:16.555Z,90.9
2023-04-08T08:25:17.127Z,90.8
2023-04-08T08:26:16.671Z,90.9
2023-04-08T08:27:17.214Z,90.8
2023-04-08T08:28:16.781Z,90.9
2023-04-08T08:29:17.324Z,90.9
2023-04-08T08:30:16.894Z,90.8
2023-04-08T08:31:17.540Z,90.9
2023-04-08T08:32:17.012Z,90.8
2023-04-08T08:33:16.609Z,90.7
2023-04-08T08:34:17.187Z,90.7
2023-04-08T08:35:16.795Z,90.7
2023-04-08T08:36:17.428Z,90.6
2023-04-08T08:37:17.000Z,90.6
2023-04-08T08:38:16.582Z,90.7
2023-04-08T08:39:17.148Z,90.6
2023-04-08T08:40:16.708Z,90.5
2023-04-08T08:41:17.265Z,90.3
2023-04-08T08:42:16.992Z,90.3
2023-04-08T08:43:16.541Z,90.3
2023-04-08T08:44:17.092Z,90.4
2023-04-08T08:45:16.646Z,90.4
2023-04-08T08:46:17.335Z,90.4
2023-04-08T08:47:16.997Z,90.3
2023-04-08T08:48:16.560Z,90.3
2023-04-08T08:49:17.163Z,90.4
2023-04-08T08:50:16.715Z,90.4
2023-04-08T08:51:17.310Z,90.3
2023-04-08T08:52:17.213Z,90.4
2023-04-08T08:53:16.816Z,90.5
2023-04-08T08:54:17.372Z,90.5
2023-04-08T08:55:41.839Z,90.2
2023-04-08T08:56:19.315Z,90.4
2023-04-08T08:57:16.913Z,90.4
2023-04-08T08:58:17.493Z,90.3
2023-04-08T08:59:17.048Z,90.0
2023-04-08T09:00:16.606Z,89.9
2023-04-08T09:01:17.173Z,90.0
2023-04-08T09:02:17.039Z,90.0
2023-04-08T09:03:17.185Z,89.9
2023-04-08T09:04:17.622Z,89.8
2023-04-08T09:05:17.966Z,89.7
2023-04-08T09:06:16.606Z,89.7
2023-04-08T09:07:17.175Z,89.8
2023-04-08T09:08:16.732Z,89.8
2023-04-08T09:09:17.296Z,90.1
2023-04-08T09:10:16.876Z,90.2
2023-04-08T09:11:17.442Z,90.1
2023-04-08T09:12:18.485Z,89.8
2023-04-08T09:13:17.128Z,89.6
2023-04-08T09:14:16.675Z,89.3
2023-04-08T09:15:17.285Z,89.7
2023-04-08T09:16:16.983Z,89.8
2023-04-08T09:17:16.571Z,89.8
2023-04-08T09:18:18.043Z,89.8
2023-04-08T09:19:16.609Z,89.7
2023-04-08T09:20:17.172Z,89.9
2023-04-08T09:21:16.725Z,89.9
2023-04-08T09:22:16.592Z,89.9
2023-04-08T09:23:17.116Z,89.9
2023-04-08T09:24:18.008Z,89.9
2023-04-08T09:25:16.591Z,89.7
2023-04-08T09:26:17.141Z,89.7
2023-04-08T09:27:16.722Z,89.5
2023-04-08T09:28:17.302Z,89.5
2023-04-08T09:29:26.545Z,89.8
2023-04-08T09:30:16.728Z,89.8
2023-04-08T09:31:17.348Z,89.6
2023-04-08T09:32:17.002Z,89.3
2023-04-08T09:33:16.556Z,89.2
2023-04-08T09:34:17.122Z,89.3
2023-04-08T09:35:16.679Z,89.3
2023-04-08T09:36:17.218Z,89.3
2023-04-08T09:37:16.823Z,89.3
2023-04-08T09:38:17.407Z,89.1
2023-04-08T09:39:16.958Z,89.0
2023-04-08T09:40:16.569Z,88.5
2023-04-08T09:41:17.187Z,88.8
2023-04-08T09:42:16.889Z,88.9
2023-04-08T09:43:17.464Z,88.5
2023-04-08T09:44:17.067Z,88.8
2023-04-08T09:45:16.606Z,88.6
2023-04-08T09:46:17.211Z,88.7
2023-04-08T09:47:16.829Z,88.6
2023-04-08T09:48:17.385Z,88.6
2023-04-08T09:49:16.934Z,88.5
2023-04-08T09:50:17.500Z,88.4
2023-04-08T09:51:17.049Z,88.4
2023-04-08T09:52:16.806Z,88.1
2023-04-08T09:53:17.364Z,87.7
2023-04-08T09:54:16.917Z,87.7
2023-04-08T09:55:17.473Z,87.9
2023-04-08T09:56:17.036Z,87.7
2023-04-08T09:57:16.649Z,88.0
2023-04-08T09:58:17.264Z,88.0
2023-04-08T09:59:16.796Z,87.7
2023-04-08T10:00:17.391Z,87.8
2023-04-08T10:01:17.058Z,87.1
2023-04-08T10:02:16.864Z,87.5
2023-04-08T10:03:17.855Z,87.3
2023-04-08T10:04:17.641Z,87.1
2023-04-08T10:05:17.282Z,87.4
2023-04-08T10:06:16.911Z,87.5
2023-04-08T10:07:17.491Z,87.1
2023-04-08T10:08:17.093Z,87.2
2023-04-08T10:09:16.630Z,87.3
2023-04-08T10:10:17.263Z,86.6
2023-04-08T10:11:16.832Z,86.9
2023-04-08T10:12:17.088Z,86.8
2023-04-08T10:13:16.647Z,86.8
2023-04-08T10:14:17.187Z,86.6
2023-04-08T10:15:16.744Z,86.5
2023-04-08T10:16:17.322Z,86.4
2023-04-08T10:17:16.863Z,85.9
2023-04-08T10:18:17.419Z,86.0
2023-04-08T10:19:16.952Z,85.8
2023-04-08T10:20:17.619Z,86.4
2023-04-08T10:21:17.222Z,86.4
2023-04-08T10:22:17.302Z,86.2
2023-04-08T10:23:16.892Z,86.1
2023-04-08T10:24:17.448Z,86.2
2023-04-08T10:25:17.163Z,86.7
2023-04-08T10:26:16.753Z,86.9
2023-04-08T10:27:17.306Z,86.4
2023-04-08T10:28:16.855Z,86.6
2023-04-08T10:29:17.387Z,86.5
2023-04-08T10:30:17.048Z,86.6
2023-04-08T10:31:16.674Z,86.9
2023-04-08T10:32:17.323Z,86.9
2023-04-08T10:33:16.910Z,86.9
2023-04-08T10:34:17.478Z,86.3
2023-04-08T10:35:17.059Z,86.2
2023-04-08T10:36:16.643Z,86.2
2023-04-08T10:37:17.230Z,86.2
2023-04-08T10:38:16.894Z,85.8
2023-04-08T10:39:17.468Z,85.5
2023-04-08T10:40:17.137Z,85.4
2023-04-08T10:41:16.749Z,85.5
2023-04-08T10:42:17.025Z,85.5
2023-04-08T10:43:16.611Z,85.5
2023-04-08T10:44:17.150Z,85.0
2023-04-08T10:45:16.771Z,84.2
2023-04-08T10:46:17.483Z,84.4
2023-04-08T10:47:17.138Z,82.4
2023-04-08T10:48:16.736Z,81.2
2023-04-08T10:49:17.286Z,80.5
2023-04-08T10:50:17.000Z,81.3
2023-04-08T10:51:16.551Z,79.0
2023-04-08T10:52:17.293Z,78.0
2023-04-08T10:53:16.861Z,79.4
2023-04-08T10:54:17.434Z,80.0
2023-04-08T10:55:16.982Z,79.4
2023-04-08T10:56:16.598Z,80.3
2023-04-08T10:57:17.134Z,80.4
2023-04-08T10:58:16.672Z,79.3
2023-04-08T10:59:17.269Z,79.6
2023-04-08T11:00:16.833Z,78.8
2023-04-08T11:01:17.695Z,79.2
2023-04-08T11:02:17.728Z,79.4
2023-04-08T11:03:17.697Z,79.2
2023-04-08T11:04:17.556Z,79.3
2023-04-08T11:05:17.177Z,79.1
2023-04-08T11:06:16.772Z,79.7
2023-04-08T11:07:17.296Z,79.4
2023-04-08T11:08:19.510Z,79.7
2023-04-08T11:09:17.196Z,79.6
2023-04-08T11:10:16.728Z,79.4
2023-04-08T11:11:17.293Z,79.0
2023-04-08T11:12:17.274Z,79.1
2023-04-08T11:13:16.809Z,79.4
2023-04-08T11:14:17.352Z,79.5
2023-04-08T11:15:16.897Z,79.8
2023-04-08T11:16:18.924Z,79.8
2023-04-08T11:17:16.506Z,78.8
2023-04-08T11:18:17.075Z,78.4
2023-04-08T11:19:16.624Z,78.5
2023-04-08T11:20:17.253Z,78.8
2023-04-08T11:21:16.967Z,78.4
2023-04-08T11:22:16.894Z,78.3
2023-04-08T11:23:17.425Z,78.2
2023-04-08T11:24:17.220Z,78.0
2023-04-08T11:25:16.792Z,78.5
2023-04-08T11:26:17.318Z,78.9
2023-04-08T11:27:16.884Z,79.2
2023-04-08T11:28:17.431Z,79.2
2023-04-08T11:29:16.989Z,79.3
2023-04-08T11:30:16.611Z,79.6
2023-04-08T11:31:17.219Z,79.8
2023-04-08T11:32:17.310Z,79.5
2023-04-08T11:33:16.880Z,79.4
2023-04-08T11:34:17.428Z,79.7
2023-04-08T11:35:16.984Z,79.6
2023-04-08T11:36:16.511Z,79.8
2023-04-08T11:37:17.083Z,80.1
2023-04-08T11:38:16.623Z,79.9
2023-04-08T11:39:17.175Z,80.1
2023-04-08T11:40:16.711Z,80.4
2023-04-08T11:41:17.307Z,80.0
2023-04-08T11:42:17.239Z,80.5
2023-04-08T11:43:16.773Z,80.0
2023-04-08T11:44:17.324Z,80.5
2023-04-08T11:45:16.955Z,80.6
2023-04-08T11:46:16.557Z,81.0
2023-04-08T11:47:17.163Z,80.9
2023-04-08T11:48:16.874Z,81.1
2023-04-08T11:49:17.573Z,81.4
2023-04-08T11:50:17.451Z,81.7
2023-04-08T11:51:16.985Z,81.8
2023-04-08T11:52:17.166Z,81.6
2023-04-08T11:53:16.839Z,81.2
2023-04-08T11:54:17.561Z,81.2
2023-04-08T11:55:17.206Z,81.0
2023-04-08T11:56:16.807Z,81.0
2023-04-08T11:57:17.334Z,81.2
2023-04-08T11:58:16.910Z,81.2
2023-04-08T11:59:17.465Z,81.2
2023-04-08T12:00:17.034Z,80.9
2023-04-08T12:01:16.580Z,81.0
2023-04-08T12:02:17.692Z,81.1
2023-04-08T12:03:17.436Z,81.3
2023-04-08T12:04:17.345Z,81.2
2023-04-08T12:05:16.993Z,81.2
2023-04-08T12:06:16.554Z,81.2
2023-04-08T12:07:17.091Z,81.1
2023-04-08T12:08:16.636Z,81.1
2023-04-08T12:09:17.186Z,80.8
2023-04-08T12:10:16.776Z,81.1
2023-04-08T12:11:20.425Z,81.1
2023-04-08T12:12:17.277Z,81.0
2023-04-08T12:13:16.806Z,80.7
2023-04-08T12:14:17.365Z,80.7
2023-04-08T12:15:16.962Z,80.9
2023-04-08T12:16:17.612Z,80.6
2023-04-08T12:17:17.271Z,80.6
2023-04-08T12:18:16.823Z,80.7
2023-04-08T12:19:17.399Z,80.3
2023-04-08T12:20:16.988Z,80.7
2023-04-08T12:21:16.533Z,80.6
2023-04-08T12:22:16.981Z,80.7
2023-04-08T12:23:16.520Z,80.8
2023-04-08T12:24:17.053Z,80.8
2023-04-08T12:25:16.669Z,81.1
2023-04-08T12:26:17.245Z,80.9
2023-04-08T12:27:16.812Z,80.9
2023-04-08T12:28:17.361Z,81.0
2023-04-08T12:29:16.897Z,80.7
2023-04-08T12:30:17.478Z,80.6
2023-04-08T12:31:17.168Z,80.5
2023-04-08T12:32:16.957Z,80.4
2023-04-08T12:33:17.511Z,80.5
2023-04-08T12:34:17.051Z,80.5
2023-04-08T12:35:16.576Z,80.6
2023-04-08T12:36:17.242Z,80.6
2023-04-08T12:37:16.861Z,80.7
2023-04-08T12:38:17.389Z,80.6
2023-04-08T12:39:16.952Z,80.3
2023-04-08T12:40:17.532Z,80.2
2023-04-08T12:41:17.100Z,80.1
2023-04-08T12:42:16.778Z,80.2
2023-04-08T12:43:17.334Z,80.2
2023-04-08T12:44:16.914Z,80.0
2023-04-08T12:45:17.693Z,80.0
2023-04-08T12:46:17.361Z,80.2
2023-04-08T12:47:16.960Z,80.0
2023-04-08T12:48:17.616Z,80.0
2023-04-08T12:49:17.313Z,79.8
2023-04-08T12:50:16.876Z,79.5
2023-04-08T12:51:17.423Z,79.3
2023-04-08T12:52:16.914Z,79.5
2023-04-08T12:53:17.502Z,79.3
2023-04-08T12:54:17.065Z,79.4
2023-04-08T12:55:16.649Z,79.0
2023-04-08T12:56:17.184Z,78.7
2023-04-08T12:57:16.781Z,78.7
2023-04-08T12:58:17.371Z,78.8
2023-04-08T12:59:17.033Z,78.9
2023-04-08T13:00:16.738Z,78.5
2023-04-08T13:01:17.591Z,78.8
2023-04-08T13:02:17.565Z,78.6
2023-04-08T13:03:17.608Z,78.4
2023-04-08T13:04:17.551Z,77.6
2023-04-08T13:05:21.641Z,77.8
2023-04-08T13:06:16.968Z,77.5
2023-04-08T13:07:17.697Z,77.5
2023-04-08T13:08:17.351Z,76.9
2023-04-08T13:09:16.964Z,76.9
2023-04-08T13:10:16.514Z,76.7
2023-04-08T13:11:17.084Z,76.4
2023-04-08T13:12:16.759Z,76.7
2023-04-08T13:13:17.324Z,76.5
2023-04-08T13:14:16.860Z,76.1
2023-04-08T13:15:17.415Z,76.5
2023-04-08T13:16:17.085Z,76.2
2023-04-08T13:17:16.664Z,75.9
2023-04-08T13:18:17.225Z,76.6